createdAt,value
2017-09-17T00:01:02.098Z,82.80
2017-09-17T00:03:29.588Z,82.70
2017-09-17T00:05:57.064Z,82.70
2017-09-17T00:08:24.560Z,82.60
2017-09-17T00:10:52.144Z,82.60
2017-09-17T00:13:19.643Z,82.60
2017-09-17T00:15:47.129Z,82.60
2017-09-17T00:18:14.627Z,82.60
2017-09-17T00:20:42.103Z,82.40
2017-09-17T00:23:09.623Z,82.40
2017-09-17T00:25:37.107Z,82.40
2017-09-17T00:28:05.371Z,82.70
2017-09-17T00:30:32.856Z,82.60
2017-09-17T00:33:00.378Z,82.70
2017-09-17T00:35:27.855Z,82.70
2017-09-17T00:37:56.118Z,82.50
2017-09-17T00:40:23.591Z,82.50
2017-09-17T00:42:51.095Z,82.50
2017-09-17T00:45:19.344Z,82.60
2017-09-17T00:47:46.831Z,82.60
2017-09-17T00:50:15.081Z,82.70
2017-09-17T00:52:42.565Z,82.60
2017-09-17T00:55:10.827Z,82.70
2017-09-17T00:57:39.073Z,82.70
2017-09-17T01:00:07.335Z,82.70
2017-09-17T01:02:34.812Z,83.30
2017-09-17T01:05:02.311Z,82.70
2017-09-17T01:07:29.811Z,82.80
2017-09-17T01:09:57.306Z,82.90
2017-09-17T01:12:25.556Z,83.10
2017-09-17T01:14:53.058Z,83.10
2017-09-17T01:17:21.310Z,83.10
2017-09-17T01:19:48.791Z,83.10
2017-09-17T01:22:16.287Z,83.80
2017-09-17T01:24:43.775Z,83.10
2017-09-17T01:27:11.268Z,83.40
2017-09-17T01:29:38.771Z,83.20
2017-09-17T01:32:06.269Z,83.20
2017-09-17T01:34:34.519Z,83.10
2017-09-17T01:37:02.011Z,83.10
2017-09-17T01:39:29.495Z,83.70
2017-09-17T01:41:56.991Z,83.10
2017-09-17T01:44:24.472Z,83.10
2017-09-17T01:46:52.740Z,83.40
2017-09-17T01:49:20.993Z,83.50
2017-09-17T01:51:48.468Z,83.40
2017-09-17T01:54:15.967Z,83.70
2017-09-17T01:56:43.448Z,84.20
2017-09-17T01:59:10.942Z,84.40
2017-09-17T02:01:39.364Z,84.30
2017-09-17T02:04:06.866Z,84.30
2017-09-17T02:06:34.350Z,84.60
2017-09-17T02:09:02.612Z,85.00
2017-09-17T02:11:30.096Z,85.00
2017-09-17T02:13:57.587Z,85.10
2017-09-17T02:16:25.095Z,85.20
2017-09-17T02:18:53.356Z,85.30
2017-09-17T02:21:20.843Z,85.20
2017-09-17T02:23:48.315Z,85.20
2017-09-17T02:26:15.807Z,85.20
2017-09-17T02:28:43.286Z,85.10
2017-09-17T02:31:10.781Z,85.00
2017-09-17T02:33:38.282Z,85.00
2017-09-17T02:36:05.780Z,85.00
2017-09-17T02:38:34.026Z,85.00
2017-09-17T02:41:01.517Z,85.00
2017-09-17T02:43:29.009Z,84.90
2017-09-17T02:45:56.505Z,84.90
2017-09-17T02:48:23.992Z,84.80
2017-09-17T02:50:51.484Z,84.80
2017-09-17T02:53:18.963Z,84.90
2017-09-17T02:55:46.466Z,85.10
2017-09-17T02:58:13.975Z,85.30
2017-09-17T03:00:41.457Z,85.20
2017-09-17T03:03:08.963Z,85.20
2017-09-17T03:05:36.434Z,84.90
2017-09-17T03:08:03.931Z,84.80
2017-09-17T03:10:32.178Z,85.00
2017-09-17T03:12:59.671Z,84.90
2017-09-17T03:15:27.915Z,84.50
2017-09-17T03:17:55.410Z,84.50
2017-09-17T03:20:23.679Z,84.30
2017-09-17T03:22:51.952Z,84.20
2017-09-17T03:25:19.965Z,84.20
2017-09-17T03:27:47.463Z,84.20
2017-09-17T03:30:14.948Z,84.20
2017-09-17T03:32:43.224Z,84.00
2017-09-17T03:35:10.713Z,84.00
2017-09-17T03:37:38.451Z,84.20
2017-09-17T03:40:05.999Z,84.10
2017-09-17T03:42:34.268Z,84.10
2017-09-17T03:45:02.547Z,84.10
2017-09-17T03:47:30.060Z,84.00
2017-09-17T03:49:57.564Z,84.10
2017-09-17T03:52:25.843Z,84.30
2017-09-17T03:54:53.351Z,84.20
2017-09-17T03:57:20.839Z,84.10
2017-09-17T03:59:48.331Z,84.10
2017-09-17T04:02:15.833Z,84.10
2017-09-17T04:04:43.358Z,84.30
2017-09-17T04:07:10.847Z,84.50
2017-09-17T04:09:38.355Z,84.50
2017-09-17T04:12:05.845Z,84.30
2017-09-17T04:14:33.358Z,84.20
2017-09-17T04:17:00.835Z,84.10
2017-09-17T04:19:28.327Z,84.20
2017-09-17T04:21:55.839Z,84.30
2017-09-17T04:24:23.339Z,83.90
2017-09-17T04:26:50.831Z,83.80
2017-09-17T04:29:18.316Z,83.90
2017-09-17T04:31:45.819Z,84.00
2017-09-17T04:34:13.315Z,84.00
2017-09-17T04:36:40.827Z,83.50
2017-09-17T04:39:08.323Z,83.70
2017-09-17T04:41:35.818Z,83.80
2017-09-17T04:44:03.303Z,83.90
2017-09-17T04:46:30.815Z,84.00
2017-09-17T04:48:59.079Z,84.00
2017-09-17T04:51:27.364Z,84.00
2017-09-17T04:53:54.858Z,83.80
2017-09-17T04:56:22.379Z,83.40
2017-09-17T04:58:49.880Z,83.20
2017-09-17T05:01:17.767Z,83.00
2017-09-17T05:03:45.268Z,83.00
2017-09-17T05:06:12.763Z,83.40
2017-09-17T05:08:40.275Z,83.80
2017-09-17T05:11:08.527Z,83.90
2017-09-17T05:13:36.181Z,83.90
2017-09-17T05:16:03.667Z,83.50
2017-09-17T05:18:31.208Z,83.40
2017-09-17T05:20:58.699Z,83.00
2017-09-17T05:23:26.210Z,82.80
2017-09-17T05:25:53.752Z,82.70
2017-09-17T05:28:21.243Z,82.80
2017-09-17T05:30:48.739Z,82.60
2017-09-17T05:33:16.352Z,82.40
2017-09-17T05:35:43.843Z,82.40
2017-09-17T05:38:12.107Z,83.00
2017-09-17T05:40:40.364Z,83.00
2017-09-17T05:43:07.853Z,83.00
2017-09-17T05:45:35.349Z,83.00
2017-09-17T05:48:02.859Z,82.70
2017-09-17T05:50:31.131Z,82.40
2017-09-17T05:52:59.400Z,82.20
2017-09-17T05:55:26.912Z,82.20
2017-09-17T05:57:54.407Z,82.20
2017-09-17T06:00:21.918Z,82.10
2017-09-17T06:02:49.407Z,81.50
2017-09-17T06:05:16.919Z,81.70
2017-09-17T06:07:44.407Z,81.70
2017-09-17T06:10:11.915Z,81.40
2017-09-17T06:12:39.419Z,81.30
2017-09-17T06:15:06.931Z,81.40
2017-09-17T06:17:34.429Z,81.40
2017-09-17T06:20:01.968Z,81.60
2017-09-17T06:22:29.457Z,81.50
2017-09-17T06:24:57.018Z,80.80
2017-09-17T06:27:24.519Z,80.70
2017-09-17T06:29:52.816Z,81.10
2017-09-17T06:32:20.344Z,81.10
2017-09-17T06:34:47.895Z,81.50
2017-09-17T06:37:15.437Z,81.80
2017-09-17T06:39:42.994Z,81.80
2017-09-17T06:42:10.507Z,81.60
2017-09-17T06:44:38.003Z,82.50
2017-09-17T06:47:05.508Z,80.90
2017-09-17T06:49:33.800Z,81.40
2017-09-17T06:52:01.327Z,81.40
2017-09-17T06:54:28.802Z,81.80
2017-09-17T06:56:57.175Z,81.70
2017-09-17T06:59:25.455Z,81.30
2017-09-17T07:01:52.968Z,81.20
2017-09-17T07:04:20.463Z,80.80
2017-09-17T07:06:47.977Z,81.00
2017-09-17T07:09:15.494Z,81.20
2017-09-17T07:11:42.997Z,80.10
2017-09-17T07:14:10.495Z,79.50
2017-09-17T07:16:38.771Z,79.20
2017-09-17T07:19:07.049Z,78.50
2017-09-17T07:21:35.330Z,77.80
2017-09-17T07:24:03.655Z,78.20
2017-09-17T07:26:31.169Z,78.20
2017-09-17T07:28:58.699Z,78.00
2017-09-17T07:31:26.200Z,78.00
2017-09-17T07:33:53.783Z,77.80
2017-09-17T07:36:21.272Z,77.60
2017-09-17T07:38:48.787Z,77.20
2017-09-17T07:41:16.279Z,77.00
2017-09-17T07:43:43.765Z,76.70
2017-09-17T07:46:12.051Z,74.20
2017-09-17T07:48:39.555Z,74.20
2017-09-17T07:51:07.062Z,75.00
2017-09-17T07:53:36.164Z,74.60
2017-09-17T07:56:04.434Z,73.80
2017-09-17T07:58:31.931Z,73.80
2017-09-17T08:00:59.453Z,74.80
2017-09-17T08:03:26.967Z,73.80
2017-09-17T08:05:54.479Z,73.50
2017-09-17T08:08:21.999Z,72.50
2017-09-17T08:10:49.512Z,72.40
2017-09-17T08:13:17.004Z,71.50
2017-09-17T08:15:44.491Z,71.20
2017-09-17T08:18:11.995Z,71.10
2017-09-17T08:20:39.560Z,70.80
2017-09-17T08:23:07.088Z,69.60
2017-09-17T08:25:34.603Z,70.80
2017-09-17T08:28:04.761Z,71.00
2017-09-17T08:30:32.266Z,70.40
2017-09-17T08:32:59.847Z,70.00
2017-09-17T08:35:27.541Z,70.70
2017-09-17T08:37:55.165Z,70.00
2017-09-17T08:40:22.768Z,69.50
2017-09-17T08:42:50.280Z,69.90
2017-09-17T08:45:17.787Z,69.40
2017-09-17T08:47:45.291Z,70.90
2017-09-17T08:50:12.787Z,67.50
2017-09-17T08:52:40.307Z,67.60
2017-09-17T08:55:07.800Z,68.20
2017-09-17T08:57:35.311Z,68.00
2017-09-17T09:00:02.787Z,68.20
2017-09-17T09:02:30.309Z,65.80
2017-09-17T09:04:57.783Z,65.50
2017-09-17T09:07:25.276Z,66.20
2017-09-17T09:09:53.533Z,67.10
2017-09-17T09:12:21.026Z,67.10
2017-09-17T09:14:49.288Z,66.70
2017-09-17T09:17:17.565Z,67.00
2017-09-17T09:19:45.102Z,67.00
2017-09-17T09:22:12.604Z,66.80
2017-09-17T09:24:40.204Z,64.40
2017-09-17T09:27:07.712Z,65.40
2017-09-17T09:29:35.231Z,65.40
2017-09-17T09:32:02.760Z,66.00
2017-09-17T09:34:30.333Z,65.00
2017-09-17T09:36:57.821Z,64.70
2017-09-17T09:39:26.108Z,64.40
2017-09-17T09:41:53.605Z,64.40
2017-09-17T09:44:21.088Z,64.30
2017-09-17T09:46:48.686Z,63.70
2017-09-17T09:49:16.190Z,62.90
2017-09-17T09:51:43.704Z,63.50
2017-09-17T09:54:11.216Z,62.20
2017-09-17T09:56:38.737Z,62.70
2017-09-17T09:59:06.675Z,63.60
2017-09-17T10:01:34.201Z,61.90
2017-09-17T10:04:01.711Z,60.20
2017-09-17T10:06:29.237Z,60.70
2017-09-17T10:08:56.747Z,61.40
2017-09-17T10:11:24.247Z,61.50
2017-09-17T10:13:51.739Z,61.70
2017-09-17T10:16:19.258Z,61.90
2017-09-17T10:18:46.753Z,61.00
2017-09-17T10:21:15.006Z,62.00
2017-09-17T10:23:42.503Z,62.00
2017-09-17T10:26:09.991Z,62.50
2017-09-17T10:28:37.516Z,62.40
2017-09-17T10:31:05.024Z,63.20
2017-09-17T10:33:32.587Z,62.50
2017-09-17T10:36:00.081Z,63.10
2017-09-17T10:38:27.595Z,63.20
2017-09-17T10:40:55.088Z,61.30
2017-09-17T10:43:23.373Z,62.00
2017-09-17T10:45:50.896Z,62.00
2017-09-17T10:48:18.625Z,63.40
2017-09-17T10:50:46.125Z,62.30
2017-09-17T10:53:13.643Z,62.60
2017-09-17T10:55:41.177Z,62.40
2017-09-17T10:58:08.686Z,63.40
2017-09-17T11:00:36.200Z,62.00
2017-09-17T11:03:03.734Z,62.00
2017-09-17T11:05:31.985Z,63.10
2017-09-17T11:07:59.475Z,63.10
2017-09-17T11:10:26.991Z,63.00
2017-09-17T11:12:54.484Z,61.40
2017-09-17T11:15:21.992Z,61.90
2017-09-17T11:17:49.492Z,62.30
2017-09-17T11:20:17.785Z,62.00
2017-09-17T11:22:45.276Z,62.00
2017-09-17T11:25:12.796Z,62.20
2017-09-17T11:27:40.291Z,61.60
2017-09-17T11:30:07.796Z,61.10
2017-09-17T11:32:35.293Z,60.70
2017-09-17T11:35:02.801Z,59.50
2017-09-17T11:37:30.321Z,60.10
2017-09-17T11:39:57.855Z,60.80
2017-09-17T11:42:25.343Z,60.10
2017-09-17T11:44:52.855Z,58.70
2017-09-17T11:47:21.127Z,58.40
2017-09-17T11:49:49.395Z,59.50
2017-09-17T11:52:16.906Z,59.50
2017-09-17T11:54:44.425Z,61.20
2017-09-17T11:57:11.994Z,60.00
2017-09-17T11:59:39.484Z,59.50
2017-09-17T12:02:06.995Z,60.20
2017-09-17T12:04:35.272Z,61.90
2017-09-17T12:07:02.787Z,61.90
2017-09-17T12:09:30.301Z,62.10
2017-09-17T12:11:57.827Z,62.00
2017-09-17T12:14:25.340Z,60.20
2017-09-17T12:16:52.863Z,59.10
2017-09-17T12:19:20.364Z,59.50
2017-09-17T12:21:47.851Z,59.60
2017-09-17T12:24:15.362Z,59.80
2017-09-17T12:26:49.935Z,61.00
2017-09-17T12:29:17.831Z,61.70
2017-09-17T12:31:46.098Z,56.00
2017-09-17T12:34:13.679Z,56.00
2017-09-17T12:36:41.524Z,57.10
2017-09-17T12:39:09.122Z,57.10
2017-09-17T12:41:36.611Z,57.10
2017-09-17T12:44:04.182Z,57.60
2017-09-17T12:46:32.187Z,58.70
2017-09-17T12:48:59.721Z,57.70
2017-09-17T12:51:27.211Z,57.60
2017-09-17T12:53:54.729Z,60.20
2017-09-17T12:56:22.224Z,61.20
2017-09-17T12:58:50.097Z,62.70
2017-09-17T13:01:17.599Z,63.50
2017-09-17T13:03:45.148Z,64.20
2017-09-17T13:06:12.649Z,64.70
2017-09-17T13:08:40.163Z,64.90
2017-09-17T13:11:07.664Z,65.60
2017-09-17T13:13:35.930Z,66.60
2017-09-17T13:16:03.418Z,66.50
2017-09-17T13:18:30.964Z,66.90
2017-09-17T13:20:58.500Z,67.30
2017-09-17T13:23:25.980Z,66.80
2017-09-17T13:25:53.517Z,68.70
2017-09-17T13:28:21.008Z,71.20
2017-09-17T13:30:48.532Z,71.50
2017-09-17T13:35:38.130Z,73.60
2017-09-17T13:38:06.392Z,75.90
2017-09-17T13:40:33.888Z,75.90
2017-09-17T13:43:01.389Z,76.20
2017-09-17T13:45:28.922Z,76.10
2017-09-17T13:47:56.513Z,75.30
2017-09-17T13:50:24.003Z,75.70
2017-09-17T13:52:51.543Z,75.00
2017-09-17T13:55:19.084Z,75.10
2017-09-17T13:57:46.588Z,75.50
2017-09-17T14:00:14.925Z,76.50
2017-09-17T14:02:44.874Z,76.50
2017-09-17T14:08:27.351Z,76.90
2017-09-17T14:10:55.284Z,77.40
2017-09-17T14:13:22.801Z,78.10
2017-09-17T14:15:50.303Z,78.30
2017-09-17T14:18:17.858Z,77.00
2017-09-17T14:20:45.679Z,76.40
2017-09-17T14:23:13.183Z,78.00
2017-09-17T14:25:40.702Z,78.30
2017-09-17T14:28:08.205Z,78.60
2017-09-17T14:30:35.743Z,79.60
2017-09-17T14:33:03.264Z,80.10
2017-09-17T14:35:30.774Z,77.10
2017-09-17T14:37:58.271Z,78.60
2017-09-17T14:40:25.791Z,77.00
2017-09-17T14:42:53.280Z,77.80
2017-09-17T14:45:20.811Z,78.10
2017-09-17T14:47:48.315Z,78.50
2017-09-17T14:50:15.824Z,78.40
2017-09-17T14:52:43.322Z,78.50
2017-09-17T14:55:10.852Z,79.30
2017-09-17T14:57:38.377Z,79.50
2017-09-17T15:00:05.884Z,79.60
2017-09-17T15:02:33.402Z,79.80
2017-09-17T15:05:00.912Z,79.80
2017-09-17T15:07:28.618Z,79.70
2017-09-17T15:09:56.135Z,80.00
2017-09-17T15:12:23.652Z,79.70
2017-09-17T15:14:51.172Z,79.60
2017-09-17T15:17:19.042Z,80.30
2017-09-17T15:19:46.736Z,80.70
2017-09-17T15:22:14.261Z,80.20
2017-09-17T15:24:41.799Z,80.40
2017-09-17T15:27:09.305Z,80.10
2017-09-17T15:29:37.209Z,80.00
2017-09-17T15:32:04.736Z,80.50
2017-09-17T15:34:32.263Z,80.90
2017-09-17T15:36:59.819Z,81.20
2017-09-17T15:39:27.353Z,80.50
2017-09-17T15:41:54.864Z,79.90
2017-09-17T15:44:22.422Z,80.00
2017-09-17T15:46:49.996Z,79.70
2017-09-17T15:49:17.595Z,79.30
2017-09-17T15:51:45.095Z,79.20
2017-09-17T15:54:12.629Z,80.60
2017-09-17T15:56:40.361Z,81.60
2017-09-17T15:59:07.878Z,82.00
2017-09-17T16:01:35.391Z,81.90
2017-09-17T16:04:02.890Z,81.20
2017-09-17T16:06:30.392Z,80.90
2017-09-17T16:08:58.009Z,78.70
2017-09-17T16:11:25.523Z,78.60
2017-09-17T16:13:53.030Z,79.50
2017-09-17T16:16:20.544Z,80.00
2017-09-17T16:18:48.050Z,81.10
2017-09-17T16:21:15.607Z,80.60
2017-09-17T16:23:43.135Z,80.90
2017-09-17T16:26:10.628Z,80.90
2017-09-17T16:28:38.151Z,81.00
2017-09-17T16:31:05.641Z,81.30
2017-09-17T16:33:33.144Z,80.70
2017-09-17T16:36:00.708Z,80.70
2017-09-17T16:38:28.204Z,80.30
2017-09-17T16:40:56.486Z,80.70
2017-09-17T16:43:23.988Z,80.60
2017-09-17T16:45:51.504Z,80.60
2017-09-17T16:48:19.022Z,80.70
2017-09-17T16:50:46.586Z,80.80
2017-09-17T16:53:14.067Z,80.80
2017-09-17T16:55:41.602Z,80.80
2017-09-17T16:58:09.094Z,81.00
2017-09-17T17:00:37.437Z,81.50
2017-09-17T17:03:04.980Z,81.50
2017-09-17T17:05:32.537Z,81.70
2017-09-17T17:08:00.024Z,81.70
2017-09-17T17:10:27.511Z,82.00
2017-09-17T17:12:55.011Z,81.80
2017-09-17T17:15:22.515Z,81.80
2017-09-17T17:17:50.062Z,81.60
2017-09-17T17:20:17.561Z,81.70
2017-09-17T17:22:45.059Z,81.70
2017-09-17T17:25:12.559Z,82.00
2017-09-17T17:27:40.103Z,82.30
2017-09-17T17:30:07.631Z,82.50
2017-09-17T17:32:35.171Z,82.60
2017-09-17T17:35:02.673Z,82.70
2017-09-17T17:37:30.251Z,82.90
2017-09-17T17:39:57.806Z,83.00
2017-09-17T17:42:25.363Z,83.10
2017-09-17T17:44:52.883Z,83.00
2017-09-17T17:47:20.376Z,83.00
2017-09-17T17:49:47.891Z,83.10
2017-09-17T17:52:15.396Z,83.30
2017-09-17T17:54:42.935Z,83.40
2017-09-17T17:57:10.433Z,83.20
2017-09-17T17:59:37.955Z,82.60
2017-09-17T18:02:06.249Z,83.30
2017-09-17T18:04:33.755Z,83.30
2017-09-17T18:07:01.257Z,83.40
2017-09-17T18:09:28.862Z,83.50
2017-09-17T18:11:56.510Z,83.50
2017-09-17T18:14:24.031Z,83.30
2017-09-17T18:16:51.613Z,83.30
2017-09-17T18:19:19.147Z,83.30
2017-09-17T18:21:47.441Z,83.20
2017-09-17T18:24:15.717Z,82.90
2017-09-17T18:26:43.255Z,82.90
2017-09-17T18:29:11.532Z,82.10
2017-09-17T18:31:39.061Z,82.00
2017-09-17T18:34:06.555Z,82.60
2017-09-17T18:36:34.878Z,82.80
2017-09-17T18:39:02.463Z,82.80
2017-09-17T18:41:30.129Z,83.30
2017-09-17T18:43:57.648Z,83.10
2017-09-17T18:46:25.244Z,83.10
2017-09-17T18:48:52.812Z,83.30
2017-09-17T18:51:20.584Z,83.00
2017-09-17T18:53:48.360Z,83.20
2017-09-17T18:56:16.701Z,82.80
2017-09-17T18:58:44.213Z,82.80
2017-09-17T19:01:12.373Z,83.10
2017-09-17T19:03:39.883Z,82.70
2017-09-17T19:06:07.387Z,83.10
2017-09-17T19:08:35.027Z,83.20
2017-09-17T19:11:02.513Z,83.10
2017-09-17T19:13:30.777Z,83.20
2017-09-17T19:15:58.429Z,82.90
2017-09-17T19:18:26.039Z,83.10
2017-09-17T19:20:53.566Z,83.10
2017-09-17T19:23:21.127Z,83.00
2017-09-17T19:25:48.669Z,81.90
2017-09-17T19:28:16.258Z,81.90
2017-09-17T19:30:43.802Z,82.30
2017-09-17T19:33:11.331Z,82.60
2017-09-17T19:35:39.608Z,83.00
2017-09-17T19:38:07.154Z,83.60
2017-09-17T19:40:34.966Z,83.10
2017-09-17T19:43:02.570Z,83.00
2017-09-17T19:45:30.123Z,83.00
2017-09-17T19:47:57.627Z,83.10
2017-09-17T19:50:25.194Z,83.00
2017-09-17T19:52:52.795Z,83.00
2017-09-17T19:55:20.314Z,82.90
2017-09-17T19:57:48.598Z,82.80
2017-09-17T20:00:16.110Z,82.80
2017-09-17T20:02:43.611Z,82.60
2017-09-17T20:05:11.133Z,82.60
2017-09-17T20:07:38.667Z,82.40
2017-09-17T20:10:06.243Z,82.40
2017-09-17T20:12:33.821Z,82.50
2017-09-17T20:15:02.160Z,82.60
2017-09-17T20:17:29.712Z,82.70
2017-09-17T20:19:57.388Z,82.80
2017-09-17T20:22:24.927Z,82.90
2017-09-17T20:24:52.433Z,83.20
2017-09-17T20:27:19.940Z,83.30
2017-09-17T20:29:47.454Z,83.30
2017-09-17T20:32:14.971Z,83.50
2017-09-17T20:34:42.461Z,83.50
2017-09-17T20:37:09.968Z,83.50
2017-09-17T20:39:37.904Z,83.40
2017-09-17T20:42:05.503Z,83.50
2017-09-17T20:44:33.016Z,84.00
2017-09-17T20:47:00.595Z,84.20
2017-09-17T20:49:28.121Z,84.30
2017-09-17T20:51:55.671Z,84.50
2017-09-17T20:54:23.159Z,84.70
2017-09-17T20:56:50.652Z,84.80
2017-09-17T20:59:18.163Z,84.70
2017-09-17T21:01:45.640Z,84.90
2017-09-17T21:04:13.139Z,85.10
2017-09-17T21:06:40.632Z,84.90
2017-09-17T21:09:08.158Z,84.90
2017-09-17T21:11:35.675Z,85.00
2017-09-17T21:14:03.179Z,85.20
2017-09-17T21:16:30.678Z,85.90
2017-09-17T21:18:59.016Z,86.40
2017-09-17T21:21:26.523Z,86.40
2017-09-17T21:23:54.067Z,86.50
2017-09-17T21:26:21.589Z,86.30
2017-09-17T21:28:49.109Z,86.30
2017-09-17T21:31:16.594Z,86.80
2017-09-17T21:33:44.080Z,86.90
2017-09-17T21:36:11.570Z,86.70
2017-09-17T21:38:39.849Z,87.00
2017-09-17T21:41:07.371Z,87.00
2017-09-17T21:43:34.874Z,87.10
2017-09-17T21:46:02.393Z,86.70
2017-09-17T21:48:29.875Z,86.60
2017-09-17T21:50:57.381Z,86.70
2017-09-17T21:53:24.884Z,86.70
2017-09-17T21:55:53.174Z,86.50
2017-09-17T21:58:20.872Z,86.50
2017-09-17T22:00:48.371Z,86.10
2017-09-17T22:03:15.852Z,86.00
2017-09-17T22:05:43.400Z,85.90
2017-09-17T22:08:11.667Z,85.50
2017-09-17T22:10:39.947Z,85.20
2017-09-17T22:13:07.456Z,85.10
2017-09-17T22:15:34.931Z,85.00
2017-09-17T22:18:02.437Z,84.90
2017-09-17T22:20:29.922Z,85.00
2017-09-17T22:22:57.419Z,84.90
2017-09-17T22:25:24.915Z,84.40
2017-09-17T22:27:52.436Z,83.90
2017-09-17T22:30:19.928Z,83.90
2017-09-17T22:32:47.418Z,83.90
2017-09-17T22:35:14.908Z,84.10
2017-09-17T22:37:42.395Z,84.20
2017-09-17T22:40:09.890Z,84.00
2017-09-17T22:42:37.396Z,84.20
2017-09-17T22:45:05.673Z,84.10
2017-09-17T22:47:33.227Z,84.10
2017-09-17T22:50:01.483Z,84.60
2017-09-17T22:52:29.086Z,84.60
2017-09-17T22:54:56.604Z,84.60
2017-09-17T22:57:24.107Z,84.90
2017-09-17T22:59:51.807Z,84.70
2017-09-17T23:02:19.300Z,84.70
2017-09-17T23:04:47.590Z,84.50
2017-09-17T23:07:15.863Z,84.10
2017-09-17T23:09:43.395Z,84.10
2017-09-17T23:12:10.984Z,84.10
2017-09-17T23:14:38.535Z,84.10
2017-09-17T23:17:06.791Z,84.20
2017-09-17T23:19:34.324Z,84.20
2017-09-17T23:22:01.832Z,84.30
2017-09-17T23:24:30.105Z,84.20
2017-09-17T23:26:58.359Z,84.50
2017-09-17T23:29:26.655Z,84.60
2017-09-17T23:31:54.934Z,84.80
2017-09-17T23:34:23.175Z,84.80
2017-09-17T23:36:50.666Z,84.80
2017-09-17T23:39:18.151Z,84.70
2017-09-17T23:41:45.633Z,85.20
2017-09-17T23:44:13.104Z,85.10
2017-09-17T23:46:40.596Z,85.00
2017-09-17T23:49:08.835Z,84.20
2017-09-17T23:51:36.319Z,84.20
2017-09-17T23:54:03.791Z,84.20
2017-09-17T23:56:31.275Z,84.50
2017-09-17T23:58:58.774Z,84.50
